Terminal Aerodrome Forecast
Issued by NWS

Home | Current Version | Previous Version | Text Only | Print | Product List | Glossary Off
Versions: 1 2 3 4 5 6 7 8 9 10 11 12 13 14 15 16 17 18

137
FTUS41 KCLE 022342
TAFFDY
TAF
KFDY 022342Z 0300/0324 13015G25KT P6SM VCTS SCT035CB OVC050
      TEMPO 0301/0304 3SM -TSRA BKN025CB OVC035
     FM030400 18020G32KT 4SM -SHRA BKN025 OVC035
      TEMPO 0304/0308 3SM -TSRA SCT008 OVC015CB
     FM030800 20018G30KT 5SM -RA SCT025 OVC035
     FM031500 23018G30KT P6SM SCT025 OVC035=

USA.gov is the U.S. government's official web portal to all federal, state and local government web resources and services.